EW0146 Kokkola FI current weather conditions

sailwx.info

Wind from 176 at 13 knots gusting 19

Air temperature -0.0° C
Dewpoint -0.6° C

Last reported at 2019-Dec-07 09:01 UTC.
Time now 2019-Dec-07 09:37 UTC

Location: N 64°05' E 023°25'.
View on Google Maps.

See reports from other nearby stations

  
Tides and Currents Weather Stations Pressure Air Temp Water Temp Dewpoint Dewpoint Depression Visibility Wind Speed Wind Dir Waves Ship Positions
date/time (UTC)wind fromknots sea level pressurealtimeterstation pressurevisibilityair tempwater tempwave heightnotes
2019-Dec-07 09:01 176 13 gusting 19 -0.0
2019-Dec-07 08:46 360 14 gusting 21 -0.0
2019-Dec-07 08:30 360 11 gusting 15 -0.0
2019-Dec-07 08:15 181 8 gusting 12 -0.6
2019-Dec-07 08:02 174 9 gusting 14 -0.6
2019-Dec-07 07:47 360 9 gusting 14 -0.0
2019-Dec-07 07:32 175 12 gusting 18 -0.0
2019-Dec-07 06:47 360 11 gusting 18 -0.0
2019-Dec-07 06:32 360 11 gusting 16 -0.0
2019-Dec-07 06:15 178 9 gusting 16 -0.0
2019-Dec-07 06:00 360 11 gusting 14 0.6
2019-Dec-07 05:46 360 11 gusting 14 -0.0
2019-Dec-07 05:30 360 12 gusting 15 0.6
2019-Dec-07 05:15 360 11 gusting 15 0.6
2019-Dec-07 05:01 360 12 gusting 17 0.6
2019-Dec-07 04:33 360 14 gusting 19 0.6
2019-Dec-07 04:03 360 11 gusting 17 0.6
2019-Dec-07 03:50 360 14 gusting 19 0.6
2019-Dec-07 02:32 360 12 gusting 15 -0.0
2019-Dec-07 02:17 360 10 gusting 13 -0.0
2019-Dec-07 02:00 360 9 gusting 14 -0.0
2019-Dec-07 01:47 360 10 gusting 13 -0.0
2019-Dec-07 01:17 360 9 gusting 14 0.6
2019-Dec-07 00:16 360 12 gusting 15 0.6
2019-Dec-06 23:32 360 15 gusting 19 1.1
2019-Dec-06 23:00 360 12 gusting 16 1.1
2019-Dec-06 22:32 360 12 gusting 17 1.1
2019-Dec-06 22:15 360 11 gusting 16 1.1
2019-Dec-06 22:00 360 13 gusting 18 1.1
2019-Dec-06 21:30 360 13 gusting 19 1.1
2019-Dec-06 21:18 360 11 gusting 19 1.1
2019-Dec-06 21:00 360 10 gusting 15 0.6
2019-Dec-06 20:32 360 11 gusting 16 0.6
2019-Dec-06 20:16 360 11 gusting 15 0.6
2019-Dec-06 19:00 360 7 gusting 11 1.1
2019-Dec-06 18:47 360 7 gusting 10 1.1
2019-Dec-06 18:33 360 6 gusting 10 1.1
2019-Dec-06 18:16 360 6 gusting 11 0.6
2019-Dec-06 18:00 360 8 gusting 10 1.1
2019-Dec-06 17:15 360 6 gusting 10 0.6
2019-Dec-06 17:02 360 8 gusting 11 0.6
2019-Dec-06 16:47 360 5 gusting 8 0.6
2019-Dec-06 16:31 360 6 gusting 9 0.6
2019-Dec-06 16:15 360 7 gusting 10 0.6
2019-Dec-06 16:02 360 8 gusting 11 -0.0
2019-Dec-06 15:47 360 6 gusting 10 -0.0
2019-Dec-06 15:31 360 9 gusting 13 -0.0
2019-Dec-06 15:02 360 9 gusting 13 -0.0
2019-Dec-06 14:30 360 6 gusting 8 -0.0
2019-Dec-06 14:00 360 5 gusting 7 -0.6
2019-Dec-06 13:47 360 5 gusting 12 -0.6
2019-Dec-06 13:30 360 5 gusting 11 -0.6
2019-Dec-06 13:00 360 5 gusting 6 -1.1
2019-Dec-06 12:47 360 4 gusting 6 -1.1
2019-Dec-06 12:30 360 4 gusting 6 -1.1
2019-Dec-06 12:15 360 4 gusting 8 -1.1
2019-Dec-06 12:03 173 4 gusting 9 -1.1
2019-Dec-06 11:45 360 6 gusting 8 -0.6
2019-Dec-06 11:33 173 6 gusting 9 -1.1
2019-Dec-06 11:02 360 5 gusting 7 -1.1
2019-Dec-06 10:45 169 3 gusting 5 -0.6
2019-Dec-06 10:31 159 3 gusting 6 -1.1
2019-Dec-06 10:02 163 2 gusting 5 -0.6
2019-Dec-06 09:46 146 4 gusting 5 -0.6
2019-Dec-06 09:01 360 4 gusting 6 -0.6
2019-Dec-06 08:30 360 5 gusting 8 -0.0
2019-Dec-06 07:30 360 9 gusting 13 -0.0
2019-Dec-06 07:15 179 6 gusting 13 -0.0
2019-Dec-06 07:01 173 10 gusting 13 0.6
2019-Dec-06 06:47 360 10 gusting 13 1.1
2019-Dec-06 06:30 360 9 gusting 13 0.6
2019-Dec-06 05:31 360 10 gusting 14 -0.0
2019-Dec-06 04:30 360 8 gusting 12 2.2
2019-Dec-06 04:15 230 8 gusting 14 2.2
2019-Dec-06 03:47 236 12 gusting 19 2.8
2019-Dec-06 03:32 230 10 gusting 17 2.8
2019-Dec-06 03:00 246 11 gusting 17 2.8
2019-Dec-06 02:30 234 15 gusting 19 2.8
2019-Dec-06 02:00 244 15 gusting 21 2.8
2019-Dec-06 01:30 248 13 gusting 19 2.8
2019-Dec-06 01:15 238 10 gusting 18 2.8
2019-Dec-06 01:00 360 11 gusting 21 2.8
2019-Dec-06 00:45 238 12 gusting 20 2.8
2019-Dec-06 00:15 360 13 gusting 23 2.8
2019-Dec-06 00:01 360 13 gusting 20 2.8
2019-Dec-05 23:46 360 13 gusting 22 2.8
2019-Dec-05 23:17 360 14 gusting 19 2.8
2019-Dec-05 23:00 239 15 gusting 21 2.8
2019-Dec-05 22:45 242 14 gusting 25 2.8
2019-Dec-05 22:30 237 16 gusting 24 3.3
2019-Dec-05 22:15 360 12 gusting 21 3.3
2019-Dec-05 22:02 240 17 gusting 25 3.3
2019-Dec-05 21:45 234 15 gusting 23 3.3
2019-Dec-05 21:30 360 15 gusting 24 3.3
2019-Dec-05 21:15 229 14 gusting 21 3.3
2019-Dec-05 21:00 241 15 gusting 20 3.3
2019-Dec-05 20:46 360 15 gusting 21 3.3
2019-Dec-05 20:30 360 18 gusting 25 3.3
2019-Dec-05 20:17 360 15 gusting 26 3.3
2019-Dec-05 19:45 360 16 gusting 26 3.3
2019-Dec-05 19:30 360 18 gusting 30 3.3
2019-Dec-05 18:45 360 15 gusting 23 2.8
2019-Dec-05 18:30 360 18 gusting 26 2.8
2019-Dec-05 18:15 360 19 gusting 25 2.8
2019-Dec-05 18:00 360 17 gusting 24 2.8
2019-Dec-05 17:45 360 15 gusting 23 2.8
2019-Dec-05 17:32 360 17 gusting 22 2.8
2019-Dec-05 17:15 360 16 gusting 22 2.8
2019-Dec-05 17:02 360 16 gusting 21 2.8
2019-Dec-05 16:31 360 19 gusting 24 2.8
2019-Dec-05 16:15 360 16 gusting 23 2.2
2019-Dec-05 16:00 360 17 gusting 22 2.2
2019-Dec-05 15:47 360 17 gusting 23 2.8
2019-Dec-05 15:30 360 16 gusting 23 2.2
2019-Dec-05 15:15 360 17 gusting 22 2.2
2019-Dec-05 14:45 360 17 gusting 21 2.8
2019-Dec-05 14:32 231 17 gusting 25 2.8
2019-Dec-05 14:15 360 16 gusting 22 2.2
2019-Dec-05 14:00 360 15 gusting 21 2.2
2019-Dec-05 13:45 360 17 gusting 21 2.2
2019-Dec-05 13:30 360 18 gusting 26 2.2
2019-Dec-05 13:02 360 20 gusting 26 2.2
2019-Dec-05 12:45 360 17 gusting 23 2.2
2019-Dec-05 12:00 360 13 gusting 19 2.2
2019-Dec-05 11:45 360 13 gusting 17 2.8
2019-Dec-05 11:00 360 13 gusting 17 2.8
2019-Dec-05 10:15 360 13 gusting 19 2.8
2019-Dec-05 10:02 360 16 gusting 19 2.8
2019-Dec-05 09:45 360 17 gusting 21 2.8
2019-Dec-05 09:15 360 14 gusting 20 2.8